Time;durP1;ratioP1;P1;durP2;ratioP2;P2;SDS_P1;SDS_P2;PMS_P1;PMS_P2;Temp;Humidity;BMP_temperature;BMP_pressure;BME280_temperature;BME280_humidity;BME280_pressure;Samples;Min_cycle;Max_cycle;Signal;HPM_P1;HPM_P2
2022/05/11 00:02:18;;;;;;;6.75;2.80;;;;;;;16.07;68.14;101154.69;5267119;28;20398;-65
2022/05/11 00:04:49;;;;;;;7.07;2.72;;;;;;;16.01;69.67;101150.75;5269680;28;20556;-65
2022/05/11 00:07:21;;;;;;;5.10;2.75;;;;;;;15.99;67.71;101143.78;5269031;28;20154;-66
2022/05/11 00:09:52;;;;;;;6.18;3.13;;;;;;;15.98;66.79;101147.50;5264271;28;20516;-65
2022/05/11 00:12:23;;;;;;;6.10;2.75;;;;;;;15.97;68.05;101152.00;5271869;28;20017;-66
2022/05/11 00:14:55;;;;;;;7.28;2.85;;;;;;;16.02;68.28;101143.50;5268544;28;20085;-66
2022/05/11 00:17:26;;;;;;;7.45;2.53;;;;;;;16.00;66.56;101143.66;5270098;28;20052;-66
2022/05/11 00:19:57;;;;;;;6.57;2.70;;;;;;;15.93;67.98;101139.00;5266304;28;20080;-66
2022/05/11 00:22:28;;;;;;;7.32;2.63;;;;;;;15.97;67.31;101130.47;5269386;28;20028;-65
2022/05/11 00:25:01;;;;;;;9.27;2.65;;;;;;;16.06;67.47;101134.97;5271330;28;20039;-65
2022/05/11 00:27:32;;;;;;;5.28;2.53;;;;;;;16.01;68.69;101131.91;5266739;28;20086;-65
2022/05/11 00:30:05;;;;;;;4.85;2.40;;;;;;;15.92;68.71;101122.00;5270308;28;20025;-65
2022/05/11 00:32:37;;;;;;;4.75;2.53;;;;;;;15.89;68.09;101124.97;5262656;28;20063;-65
2022/05/11 00:35:08;;;;;;;6.80;2.50;;;;;;;15.88;68.37;101123.28;5268288;28;20115;-65
2022/05/11 00:37:39;;;;;;;4.80;2.40;;;;;;;15.90;67.80;101113.22;5267012;28;20034;-65
2022/05/11 00:40:11;;;;;;;7.63;2.45;;;;;;;15.91;69.97;101116.75;5273236;28;20426;-65
2022/05/11 00:42:43;;;;;;;7.30;2.55;;;;;;;15.90;67.13;101109.66;5268536;28;20067;-65
2022/05/11 00:45:14;;;;;;;7.18;2.40;;;;;;;15.87;67.02;101102.75;5263964;28;20032;-65
2022/05/11 00:50:57;;;;;;;7.38;2.47;;;;;;;15.88;66.59;101101.75;5270619;28;20036;-66
2022/05/11 00:53:29;;;;;;;8.23;2.22;;;;;;;15.90;67.77;101096.22;5272256;28;20024;-65
2022/05/11 00:56:01;;;;;;;6.32;2.40;;;;;;;15.81;70.25;101097.94;5273368;28;20030;-65
2022/05/11 00:58:41;;;;;;;4.10;2.17;;;;;;;15.84;66.82;101093.13;5270504;28;20024;-65
2022/05/11 01:01:14;;;;;;;6.97;2.92;;;;;;;15.78;69.95;101096.41;5272739;28;20151;-65
2022/05/11 01:03:52;;;;;;;5.93;2.17;;;;;;;15.85;66.82;101091.28;5268761;28;20752;-65
2022/05/11 01:06:23;;;;;;;7.35;2.33;;;;;;;15.78;68.32;101095.53;5269182;28;20119;-66
2022/05/11 01:08:54;;;;;;;4.00;1.92;;;;;;;15.77;67.58;101092.00;5265469;28;20040;-65
2022/05/11 01:11:26;;;;;;;6.82;1.90;;;;;;;15.88;71.26;101077.53;5268526;28;20028;-65
2022/05/11 01:13:58;;;;;;;4.05;2.13;;;;;;;15.82;67.21;101075.41;5269381;28;20479;-66
2022/05/11 01:16:30;;;;;;;4.00;1.90;;;;;;;15.79;73.25;101081.94;5263397;28;20095;-65
2022/05/11 01:19:04;;;;;;;7.28;2.05;;;;;;;15.76;73.19;101079.56;5270611;28;20040;-65
2022/05/11 01:21:49;;;;;;;5.68;1.85;;;;;;;15.84;67.83;101070.75;5261142;28;20456;-65
2022/05/11 01:24:32;;;;;;;6.45;2.20;;;;;;;15.78;72.91;101063.25;5263869;28;20402;-66
2022/05/11 01:27:33;;;;;;;4.28;2.00;;;;;;;15.80;69.45;101066.66;5265810;28;20039;-65
2022/05/11 01:30:15;;;;;;;6.25;2.08;;;;;;;15.76;72.05;101063.44;5263349;28;20615;-65
2022/05/11 01:32:52;;;;;;;6.28;2.17;;;;;;;15.67;72.48;101067.78;5263925;28;20613;-65
2022/05/11 01:35:49;;;;;;;3.05;1.80;;;;;;;15.72;73.25;101070.03;5268384;28;20032;-65
2022/05/11 01:38:45;;;;;;;3.45;1.90;;;;;;;15.74;69.45;101065.38;5268510;28;20039;-65
2022/05/11 01:41:22;;;;;;;4.20;2.05;;;;;;;15.74;74.93;101070.75;5277353;28;20028;-66
2022/05/11 01:43:54;;;;;;;3.83;2.20;;;;;;;15.68;69.02;101074.84;5279267;28;20035;-66
2022/05/11 01:46:25;;;;;;;3.63;1.95;;;;;;;15.68;74.49;101066.78;5276002;28;20024;-65
2022/05/11 01:48:57;;;;;;;4.35;2.15;;;;;;;15.72;69.14;101067.34;5282436;28;20028;-65
2022/05/11 01:51:28;;;;;;;4.63;1.83;;;;;;;15.78;71.55;101061.44;5288252;28;20024;-65
2022/05/11 01:54:00;;;;;;;5.63;2.13;;;;;;;15.69;72.76;101059.56;5275869;28;20025;-66
2022/05/11 01:56:32;;;;;;;5.28;2.63;;;;;;;15.67;70.05;101061.56;5273706;28;20081;-65
2022/05/11 01:59:03;;;;;;;5.93;2.30;;;;;;;15.65;72.98;101064.41;5271381;28;20572;-65
2022/05/11 02:01:37;;;;;;;5.65;2.05;;;;;;;15.66;71.02;101059.84;5277742;28;20020;-65
2022/05/11 02:09:51;;;;;;;3.95;2.10;;;;;;;15.69;71.39;101056.88;5274723;28;20568;-65
2022/05/11 02:12:22;;;;;;;5.05;2.00;;;;;;;15.66;70.95;101059.84;5269102;28;20151;-65
2022/05/11 02:14:53;;;;;;;6.68;2.00;;;;;;;15.67;70.55;101048.13;5276396;28;20043;-65
2022/05/11 02:17:25;;;;;;;10.10;2.15;;;;;;;15.65;72.51;101048.25;5278434;28;20109;-65
2022/05/11 02:19:56;;;;;;;4.68;1.95;;;;;;;15.70;69.48;101045.13;5274018;28;20070;-65
2022/05/11 02:22:27;;;;;;;5.22;2.10;;;;;;;15.61;69.80;101054.06;5271590;28;20021;-65
2022/05/11 02:24:59;;;;;;;8.77;2.45;;;;;;;15.59;69.64;101046.16;5274728;28;20413;-65
2022/05/11 02:27:31;;;;;;;4.22;1.75;;;;;;;15.61;69.03;101048.69;5277309;28;20508;-65
2022/05/11 02:30:05;;;;;;;4.63;1.92;;;;;;;15.60;72.00;101049.69;5270763;28;20020;-65
2022/05/11 02:32:37;;;;;;;4.97;2.45;;;;;;;15.55;72.70;101044.75;5270827;28;20081;-65
2022/05/11 02:35:16;;;;;;;4.30;1.95;;;;;;;15.56;70.48;101043.75;5262246;28;20039;-65
2022/05/11 02:37:55;;;;;;;4.88;1.88;;;;;;;15.58;69.21;101049.00;5264511;28;20032;-65
2022/05/11 02:40:33;;;;;;;6.50;2.50;;;;;;;15.56;69.74;101045.59;5266659;28;20502;-65
2022/05/11 02:43:06;;;;;;;6.30;2.03;;;;;;;15.56;70.49;101045.59;5268999;28;20040;-65
2022/05/11 02:45:39;;;;;;;4.28;1.98;;;;;;;15.59;73.32;101043.47;5270313;28;20086;-65
2022/05/11 02:48:15;;;;;;;5.25;2.17;;;;;;;15.54;71.75;101040.34;5273574;28;20036;-65
2022/05/11 02:50:58;;;;;;;4.63;2.05;;;;;;;15.58;69.23;101047.13;5265757;28;20025;-65
2022/05/11 02:53:31;;;;;;;10.63;2.60;;;;;;;15.56;72.85;101041.06;5265177;28;20039;-65
2022/05/11 02:56:03;;;;;;;5.93;1.80;;;;;;;15.57;71.52;101041.91;5265379;28;20339;-65
2022/05/11 02:58:34;;;;;;;4.68;2.30;;;;;;;15.58;72.49;101043.59;5263930;28;20075;-65
2022/05/11 03:01:06;;;;;;;4.35;2.28;;;;;;;15.54;74.04;101039.50;5265278;28;20046;-65
2022/05/11 03:03:38;;;;;;;4.60;2.00;;;;;;;15.50;70.11;101041.66;5270168;28;20025;-65
2022/05/11 03:06:09;;;;;;;5.50;1.83;;;;;;;15.59;71.72;101037.22;5274785;28;20024;-65
2022/05/11 03:08:42;;;;;;;5.50;2.03;;;;;;;15.52;70.06;101028.06;5270337;28;21329;-65
2022/05/11 03:11:14;;;;;;;3.90;1.88;;;;;;;15.51;70.99;101037.09;5267437;28;20068;-65
2022/05/11 03:13:45;;;;;;;4.68;2.05;;;;;;;15.48;69.83;101027.50;5275540;28;20051;-65
2022/05/11 03:16:17;;;;;;;5.45;1.70;;;;;;;15.52;72.74;101017.31;5263478;28;20675;-65
2022/05/11 03:18:48;;;;;;;7.07;1.92;;;;;;;15.45;70.14;101025.09;5268871;28;20025;-65
2022/05/11 03:21:21;;;;;;;4.82;2.15;;;;;;;15.48;70.90;101024.81;5274242;28;20692;-65
2022/05/11 03:23:53;;;;;;;4.00;1.73;;;;;;;15.46;71.24;101016.88;5272172;28;20518;-65
2022/05/11 03:26:24;;;;;;;4.45;1.95;;;;;;;15.49;71.74;101015.72;5271436;28;20162;-65
2022/05/11 03:28:56;;;;;;;4.43;2.13;;;;;;;15.44;70.32;101018.88;5273851;28;20032;-66
2022/05/11 03:31:27;;;;;;;5.15;2.03;;;;;;;15.43;70.84;101003.72;5272287;28;20165;-65
2022/05/11 03:36:49;;;;;;;4.18;1.70;;;;;;;15.38;70.57;100994.38;5275293;28;20362;-65
2022/05/11 03:39:20;;;;;;;3.53;1.80;;;;;;;15.41;75.33;101003.00;5274899;28;20399;-66
2022/05/11 03:41:51;;;;;;;3.17;1.70;;;;;;;15.41;70.63;100999.47;5283362;28;20411;-66
2022/05/11 03:44:23;;;;;;;5.55;1.92;;;;;;;15.40;71.66;101001.34;5273052;28;20033;-65
2022/05/11 03:46:54;;;;;;;5.03;1.98;;;;;;;15.38;74.42;100995.25;5270798;28;20031;-65
2022/05/11 03:49:27;;;;;;;5.03;1.80;;;;;;;15.37;76.18;100990.84;5269308;28;20474;-65
2022/05/11 03:51:59;;;;;;;5.90;1.90;;;;;;;15.32;72.00;100995.81;5272342;28;20121;-65
2022/05/11 03:54:31;;;;;;;6.57;2.10;;;;;;;15.28;71.90;100983.66;5275116;28;20154;-65
2022/05/11 03:57:02;;;;;;;5.53;2.42;;;;;;;15.26;74.70;100991.00;5276661;28;20027;-65
2022/05/11 03:59:38;;;;;;;6.43;1.90;;;;;;;15.27;71.39;100984.66;5274372;28;20058;-65
2022/05/11 04:02:09;;;;;;;6.50;2.00;;;;;;;15.24;72.20;100995.69;5270251;28;20426;-65
2022/05/11 04:04:41;;;;;;;5.03;2.35;;;;;;;15.17;75.62;100992.75;5267566;28;20025;-65
2022/05/11 04:07:12;;;;;;;3.95;2.20;;;;;;;15.23;75.12;100988.63;5266170;28;21335;-65
2022/05/11 04:09:44;;;;;;;6.35;1.88;;;;;;;15.23;74.72;100991.31;5262129;28;20019;-65
2022/05/11 04:12:15;;;;;;;5.32;2.13;;;;;;;15.21;75.48;100990.63;5267188;28;20025;-65
2022/05/11 04:14:47;;;;;;;5.65;2.35;;;;;;;15.12;74.87;100984.25;5271276;28;22108;-65
2022/05/11 04:17:18;;;;;;;5.07;2.15;;;;;;;15.05;75.91;100986.69;5272237;28;20122;-65
2022/05/11 04:19:50;;;;;;;5.25;1.98;;;;;;;15.01;74.70;100984.41;5271957;28;20606;-65
2022/05/11 04:22:21;;;;;;;4.20;1.90;;;;;;;14.93;77.96;100986.97;5277158;28;20104;-65
2022/05/11 04:24:52;;;;;;;4.78;2.20;;;;;;;14.84;75.73;100980.59;5274443;28;20043;-65
2022/05/11 04:27:24;;;;;;;5.50;2.03;;;;;;;14.81;76.93;100983.59;5270576;28;20081;-66
2022/05/11 04:29:55;;;;;;;3.70;2.17;;;;;;;14.82;77.86;100985.25;5271585;28;20115;-65
2022/05/11 04:32:27;;;;;;;5.35;2.47;;;;;;;14.78;75.67;100989.22;5273578;28;20035;-65
2022/05/11 04:34:58;;;;;;;4.03;2.10;;;;;;;14.74;78.53;100983.28;5276488;28;20036;-65
2022/05/11 04:37:29;;;;;;;5.22;2.08;;;;;;;14.79;79.17;100980.19;5269980;28;20114;-65
2022/05/11 04:40:00;;;;;;;4.20;2.17;;;;;;;14.69;76.95;100983.72;5276465;28;20051;-65
2022/05/11 04:42:32;;;;;;;3.90;1.90;;;;;;;14.63;77.18;100986.97;5266020;28;20123;-65
2022/05/11 04:45:04;;;;;;;3.72;2.17;;;;;;;14.57;80.75;100979.44;5267831;28;20621;-66
2022/05/11 04:47:35;;;;;;;5.35;2.22;;;;;;;14.59;77.92;100996.28;5266799;28;20055;-65
2022/05/11 04:50:08;;;;;;;5.53;2.40;;;;;;;14.57;77.41;100984.81;5265976;28;20048;-66
2022/05/11 04:52:39;;;;;;;4.25;2.17;;;;;;;14.59;78.48;100987.38;5267290;28;20379;-66
2022/05/11 04:55:11;;;;;;;5.63;2.33;;;;;;;14.58;77.76;100985.69;5269045;28;20028;-66
2022/05/11 04:57:42;;;;;;;4.38;1.95;;;;;;;14.59;76.35;100982.84;5262699;28;20029;-65
2022/05/11 05:00:14;;;;;;;5.40;2.33;;;;;;;14.56;79.79;100985.81;5264922;28;20032;-65
2022/05/11 05:02:45;;;;;;;5.47;2.35;;;;;;;14.57;77.42;100979.44;5261323;28;20150;-65
2022/05/11 05:05:18;;;;;;;6.20;2.28;;;;;;;14.62;77.04;100985.25;5268856;28;20028;-66
2022/05/11 05:07:49;;;;;;;4.82;2.47;;;;;;;14.65;77.12;100986.81;5270150;28;20050;-65
2022/05/11 05:10:21;;;;;;;7.25;2.30;;;;;;;14.78;78.98;100987.38;5274322;28;20036;-65
2022/05/11 05:12:52;;;;;;;7.13;2.70;;;;;;;14.74;78.49;100983.28;5269052;28;20032;-65
2022/05/11 05:15:24;;;;;;;6.28;2.33;;;;;;;14.82;76.85;100977.19;5274186;28;20555;-66
2022/05/11 05:17:55;;;;;;;6.05;2.28;;;;;;;14.81;75.56;100984.44;5269424;28;20402;-66
2022/05/11 05:20:26;;;;;;;5.57;2.70;;;;;;;14.81;75.74;100989.78;5271570;28;20032;-66
2022/05/11 05:22:57;;;;;;;6.15;2.88;;;;;;;14.82;75.69;100990.63;5270680;28;20032;-65
2022/05/11 05:25:29;;;;;;;7.03;2.78;;;;;;;14.77;76.60;100999.13;5272859;28;20028;-65
2022/05/11 05:31:05;;;;;;;4.72;2.42;;;;;;;14.77;76.20;101009.03;5268228;28;20187;-65
2022/05/11 05:33:39;;;;;;;5.28;2.67;;;;;;;14.80;75.71;101009.56;5271366;28;20435;-65
2022/05/11 05:36:11;;;;;;;4.65;2.40;;;;;;;14.83;76.75;101008.47;5272297;28;20033;-66
2022/05/11 05:38:43;;;;;;;6.78;2.58;;;;;;;14.83;75.92;101003.94;5268739;28;20028;-65
2022/05/11 05:41:14;;;;;;;6.70;2.97;;;;;;;14.85;75.95;100996.56;5273299;28;20081;-65
2022/05/11 05:43:45;;;;;;;9.60;2.85;;;;;;;14.82;76.61;101004.06;5277102;28;20445;-65
2022/05/11 05:46:17;;;;;;;6.72;2.60;;;;;;;14.84;75.63;101007.47;5273753;28;20024;-65
2022/05/11 05:48:48;;;;;;;5.88;2.90;;;;;;;14.81;76.18;101008.59;5277995;28;20094;-65
2022/05/11 05:51:22;;;;;;;6.28;2.63;;;;;;;14.91;75.30;101003.22;5284916;28;20030;-65
2022/05/11 05:53:53;;;;;;;6.28;3.15;;;;;;;14.88;75.11;101003.50;5282342;28;20506;-64
2022/05/11 05:56:24;;;;;;;8.57;2.90;;;;;;;14.92;75.12;101013.00;5277758;28;20474;-66
2022/05/11 05:58:58;;;;;;;6.50;2.70;;;;;;;14.94;74.78;101011.00;5275987;28;20032;-65
2022/05/11 06:01:30;;;;;;;5.90;2.30;;;;;;;14.97;73.92;101010.72;5277347;28;20036;-65
2022/05/11 06:04:01;;;;;;;7.60;2.45;;;;;;;14.94;74.38;101016.38;5279681;28;20036;-66
2022/05/11 06:06:32;;;;;;;7.22;2.53;;;;;;;14.96;73.72;101014.41;5275715;28;20505;-66
2022/05/11 06:09:04;;;;;;;5.95;2.28;;;;;;;15.04;73.55;101016.38;5273552;28;20051;-65
2022/05/11 06:11:37;;;;;;;5.95;2.35;;;;;;;15.03;74.14;101017.34;5277722;28;20027;-65
2022/05/11 06:14:08;;;;;;;7.80;2.03;;;;;;;15.02;72.79;101008.47;5270183;28;20024;-65
2022/05/11 06:16:40;;;;;;;6.65;1.92;;;;;;;15.12;72.07;101008.44;5254254;28;20083;-66
2022/05/11 06:19:11;;;;;;;6.38;2.42;;;;;;;15.13;72.39;101003.91;5252134;28;20035;-66
2022/05/11 06:21:44;;;;;;;6.63;2.22;;;;;;;15.12;72.73;101002.22;5252768;28;20551;-65
2022/05/11 06:24:16;;;;;;;7.28;2.20;;;;;;;15.15;73.10;101005.47;5251631;28;20061;-65
2022/05/11 06:26:47;;;;;;;7.38;1.85;;;;;;;15.17;72.19;100994.56;5265692;28;20122;-65
2022/05/11 06:29:19;;;;;;;7.07;2.08;;;;;;;15.21;71.29;100996.00;5266159;28;20047;-65
2022/05/11 06:31:50;;;;;;;7.88;3.13;;;;;;;15.26;70.55;101005.31;5270725;28;20044;-65
2022/05/11 06:34:21;;;;;;;8.77;2.25;;;;;;;15.32;69.16;101006.56;5268650;28;20030;-65
2022/05/11 06:36:53;;;;;;;10.30;3.30;;;;;;;15.39;70.12;100996.94;5273412;28;20056;-66
2022/05/11 06:39:24;;;;;;;8.70;3.28;;;;;;;15.48;69.97;100990.69;5271374;28;20024;-65
2022/05/11 06:41:55;;;;;;;8.07;2.30;;;;;;;15.59;68.34;100988.81;5270621;28;20431;-65
2022/05/11 06:44:26;;;;;;;11.48;3.97;;;;;;;15.66;69.36;100987.22;5272176;28;20097;-66
2022/05/11 06:46:58;;;;;;;6.70;2.00;;;;;;;15.75;67.18;100989.06;5270166;28;20492;-66
2022/05/11 06:49:30;;;;;;;6.45;1.90;;;;;;;15.87;67.14;100989.72;5268563;28;20037;-65
2022/05/11 06:52:02;;;;;;;5.55;1.92;;;;;;;15.95;66.43;100995.22;5273147;28;20028;-65
2022/05/11 07:00:13;;;;;;;5.03;2.03;;;;;;;16.33;64.65;100989.78;5273601;28;20053;-65
2022/05/11 07:02:45;;;;;;;8.80;2.60;;;;;;;16.38;65.17;100982.94;5269318;28;20037;-65
2022/05/11 07:05:17;;;;;;;8.68;2.50;;;;;;;16.54;65.55;100979.56;5269916;28;20029;-66
2022/05/11 07:07:49;;;;;;;12.43;4.65;;;;;;;16.64;66.81;100988.44;5274635;28;20657;-66
2022/05/11 07:10:21;;;;;;;6.82;2.00;;;;;;;16.69;66.62;100993.34;5268718;28;20032;-66
2022/05/11 07:12:53;;;;;;;5.15;1.77;;;;;;;16.80;64.16;100990.44;5269704;28;20508;-65
2022/05/11 07:15:25;;;;;;;6.25;1.98;;;;;;;16.88;64.90;100995.06;5269959;28;20020;-66
2022/05/11 07:17:59;;;;;;;5.68;2.17;;;;;;;17.09;63.80;100999.31;5270465;28;20025;-66
2022/05/11 07:20:36;;;;;;;;;;;;;;;17.14;64.69;100996.97;5270196;28;20042;-65
2022/05/11 07:23:08;;;;;;;6.93;2.40;;;;;;;17.35;62.69;100991.22;5271025;28;19920;-66
2022/05/11 07:25:39;;;;;;;6.15;2.00;;;;;;;17.42;62.91;100995.81;5271912;28;20036;-65
2022/05/11 07:28:10;;;;;;;11.85;2.58;;;;;;;17.44;60.43;100992.97;5270214;28;20374;-66
2022/05/11 07:30:46;;;;;;;6.40;2.22;;;;;;;17.56;59.63;101004.34;5269454;28;20028;-65
2022/05/11 07:33:18;;;;;;;7.47;2.17;;;;;;;17.57;59.57;100995.25;5272196;28;20017;-65
2022/05/11 07:35:49;;;;;;;6.93;2.63;;;;;;;17.53;59.44;100993.88;5270691;28;20024;-65
2022/05/11 07:38:20;;;;;;;12.07;2.92;;;;;;;17.62;60.40;101001.00;5270799;28;20090;-66
2022/05/11 07:40:52;;;;;;;7.40;2.10;;;;;;;17.62;59.33;100990.19;5269025;28;20028;-67
2022/05/11 07:43:23;;;;;;;10.73;2.60;;;;;;;17.68;58.17;101002.22;5268117;28;20125;-69
2022/05/11 07:45:55;;;;;;;7.10;2.60;;;;;;;17.67;57.55;100990.56;5268248;28;20036;-66
2022/05/11 07:48:26;;;;;;;6.45;2.10;;;;;;;17.63;57.94;101003.53;5269993;28;20035;-65
2022/05/11 07:50:57;;;;;;;8.70;2.13;;;;;;;17.69;58.23;100996.66;5270587;28;20051;-66
2022/05/11 07:53:29;;;;;;;10.77;2.72;;;;;;;17.68;57.04;101003.06;5264520;28;20025;-65
2022/05/11 08:01:40;;;;;;;8.15;1.75;;;;;;;17.77;56.24;100999.38;5272382;28;20041;-67
2022/05/11 08:04:11;;;;;;;7.25;2.35;;;;;;;17.83;57.10;100997.91;5269759;28;20028;-67
2022/05/11 08:06:42;;;;;;;8.10;2.75;;;;;;;17.87;57.21;101009.25;5274136;28;20754;-67
2022/05/11 08:09:14;;;;;;;5.82;2.10;;;;;;;17.92;55.93;101002.38;5270847;28;20111;-68
2022/05/11 08:11:47;;;;;;;12.00;3.75;;;;;;;17.96;57.51;101001.03;5270703;28;20070;-66
2022/05/11 08:14:19;;;;;;;13.88;5.10;;;;;;;18.22;58.82;101003.69;5270151;28;20024;-66
2022/05/11 08:16:53;;;;;;;8.50;3.88;;;;;;;18.39;56.29;101003.75;5268913;28;20114;-66
2022/05/11 08:19:27;;;;;;;14.65;4.57;;;;;;;18.57;57.22;101001.75;5269558;28;20089;-66
2022/05/11 08:21:58;;;;;;;5.75;1.63;;;;;;;18.58;56.20;100998.03;5271128;28;20037;-66
2022/05/11 08:24:31;;;;;;;7.55;1.88;;;;;;;18.85;57.44;101000.63;5271942;28;20097;-66
2022/05/11 08:27:03;;;;;;;4.50;1.90;;;;;;;18.79;54.78;100996.69;5266699;28;20036;-66
2022/05/11 08:35:14;;;;;;;8.48;2.70;;;;;;;18.81;54.46;100997.41;5272351;28;20057;-66
2022/05/11 08:37:45;;;;;;;9.43;2.83;;;;;;;18.76;52.95;100992.47;5268471;28;20849;-66
2022/05/11 08:40:37;;;;;;;8.73;2.70;;;;;;;18.77;54.68;100993.31;5268094;28;20036;-66
2022/05/11 08:43:12;;;;;;;6.75;1.90;;;;;;;18.72;53.93;100987.59;5268478;28;20029;-66
2022/05/11 08:45:57;;;;;;;6.43;2.05;;;;;;;18.75;53.45;100992.63;5271628;28;20036;-66
2022/05/11 08:48:48;;;;;;;7.38;2.30;;;;;;;18.79;54.74;101000.25;5271338;28;20390;-66
2022/05/11 08:51:29;;;;;;;7.45;2.60;;;;;;;18.82;53.99;100998.28;5270116;28;20569;-66
2022/05/11 08:54:13;;;;;;;8.27;2.22;;;;;;;18.87;55.00;100996.75;5269159;28;20032;-66
2022/05/11 08:56:45;;;;;;;8.88;2.42;;;;;;;18.73;53.85;100990.09;5264823;28;20082;-66
2022/05/11 08:59:21;;;;;;;7.57;2.45;;;;;;;18.84;54.16;100991.66;5264031;28;20035;-67
2022/05/11 09:02:10;;;;;;;8.32;2.72;;;;;;;18.93;54.68;101000.66;5268780;28;20567;-66
2022/05/11 09:04:52;;;;;;;7.07;2.25;;;;;;;18.90;53.20;100998.25;5267969;28;20044;-66
2022/05/11 09:07:23;;;;;;;9.80;2.80;;;;;;;18.84;53.72;100988.97;5270658;28;20031;-66
2022/05/11 09:09:55;;;;;;;8.23;2.40;;;;;;;18.92;54.02;100982.72;5265976;28;20386;-66
2022/05/11 09:12:26;;;;;;;6.57;2.40;;;;;;;18.90;53.19;100982.88;5270622;28;20058;-66
2022/05/11 09:14:59;;;;;;;6.93;2.33;;;;;;;18.94;53.38;100973.41;5271096;28;21235;-66
2022/05/11 09:17:37;;;;;;;7.23;2.20;;;;;;;19.17;54.62;100978.97;5272261;28;20048;-65
2022/05/11 09:20:18;;;;;;;6.25;2.33;;;;;;;19.28;53.38;100975.09;5271339;28;20442;-67
2022/05/11 09:22:53;;;;;;;8.18;2.50;;;;;;;19.33;53.77;100970.03;5269586;28;20043;-66
2022/05/11 09:25:28;;;;;;;9.82;2.45;;;;;;;19.33;53.78;100970.03;5275944;28;20060;-66
2022/05/11 09:28:27;;;;;;;5.80;2.00;;;;;;;19.52;54.20;100974.22;5273535;28;20020;-65
2022/05/11 09:31:05;;;;;;;7.93;3.28;;;;;;;19.72;54.45;100973.84;5268035;28;20208;-66
2022/05/11 09:34:04;;;;;;;7.97;2.50;;;;;;;19.78;55.00;100970.44;5273893;28;20485;-66
2022/05/11 09:36:40;;;;;;;5.88;2.40;;;;;;;19.86;54.48;100964.97;5275718;28;20031;-66
2022/05/11 09:39:16;;;;;;;6.90;2.30;;;;;;;19.81;53.26;100959.25;5272357;28;20039;-66
2022/05/11 09:41:50;;;;;;;10.75;2.40;;;;;;;19.82;53.02;100965.50;5272000;28;20068;-66
2022/05/11 09:44:45;;;;;;;9.82;2.30;;;;;;;19.73;53.37;100957.44;5274963;28;20027;-66
2022/05/11 09:47:27;;;;;;;7.95;2.20;;;;;;;19.59;52.73;100953.53;5271890;28;20036;-65
2022/05/11 09:50:17;;;;;;;6.30;2.20;;;;;;;19.69;53.44;100958.75;5272837;28;20111;-66
2022/05/11 09:52:51;;;;;;;6.30;2.35;;;;;;;19.63;53.75;100955.91;5270780;28;20032;-66
2022/05/11 09:55:28;;;;;;;4.88;2.17;;;;;;;19.60;54.13;100951.69;5272450;28;20577;-66
2022/05/11 09:58:08;;;;;;;8.82;2.45;;;;;;;19.63;54.64;100954.03;5273279;28;20060;-66
2022/05/11 10:00:42;;;;;;;6.82;2.38;;;;;;;19.74;53.62;100950.97;5270124;28;20024;-66
2022/05/11 10:03:22;;;;;;;7.13;2.45;;;;;;;19.78;54.26;100948.78;5269918;28;20051;-66
2022/05/11 10:05:54;;;;;;;6.75;2.10;;;;;;;19.78;53.14;100952.31;5268468;28;20032;-65
2022/05/11 10:08:31;;;;;;;5.95;2.60;;;;;;;19.71;52.84;100956.72;5267397;28;20032;-65
2022/05/11 10:11:16;;;;;;;9.07;2.75;;;;;;;19.60;52.87;100951.69;5268256;28;20462;-65
2022/05/11 10:13:56;;;;;;;8.00;2.33;;;;;;;19.69;53.19;100945.19;5267239;28;20397;-65
2022/05/11 10:22:57;;;;;;;6.72;2.60;;;;;;;19.97;53.09;100947.50;5273432;28;20045;-65
2022/05/11 10:25:36;;;;;;;7.60;3.13;;;;;;;20.02;52.17;100944.25;5267987;28;20894;-65
2022/05/11 10:28:29;;;;;;;6.20;2.33;;;;;;;19.91;52.15;100949.06;5267294;28;20033;-65
2022/05/11 10:31:05;;;;;;;7.75;2.50;;;;;;;19.99;53.35;100942.75;5268556;28;20505;-66
2022/05/11 10:34:16;;;;;;;6.18;2.47;;;;;;;19.95;53.97;100930.59;5268024;28;20078;-65
2022/05/11 10:36:59;;;;;;;10.13;2.85;;;;;;;20.00;53.97;100932.75;5265763;28;20139;-65
2022/05/11 10:39:49;;;;;;;5.07;2.40;;;;;;;20.00;52.89;100920.09;5269012;28;20033;-65
2022/05/11 10:42:48;;;;;;;6.60;1.85;;;;;;;20.09;53.71;100926.28;5266989;28;20041;-65
2022/05/11 10:45:30;;;;;;;7.38;2.17;;;;;;;20.26;53.19;100927.88;5267774;28;20032;-66
2022/05/11 10:48:48;;;;;;;6.40;2.42;;;;;;;20.18;52.47;100920.63;5266497;28;20029;-65
2022/05/11 10:51:34;;;;;;;5.97;2.17;;;;;;;20.36;53.63;100914.09;5271178;28;20029;-65
2022/05/11 10:54:10;;;;;;;8.55;2.10;;;;;;;20.51;52.68;100914.16;5267086;28;20360;-65
2022/05/11 10:56:44;;;;;;;5.93;3.35;;;;;;;20.38;52.00;100912.03;5269632;28;20028;-65
2022/05/11 10:59:18;;;;;;;9.80;2.90;;;;;;;20.51;52.79;100909.56;5269263;28;20066;-65
2022/05/11 11:02:14;;;;;;;7.32;2.20;;;;;;;20.69;51.68;100916.56;5269404;28;20613;-65
2022/05/11 11:05:13;;;;;;;6.50;2.10;;;;;;;20.79;51.24;100914.47;5269609;28;20064;-66
2022/05/11 11:08:05;;;;;;;6.75;2.20;;;;;;;20.87;51.62;100908.97;5266234;28;20680;-66
2022/05/11 11:10:52;;;;;;;5.60;2.20;;;;;;;20.94;50.60;100907.22;5264864;28;20036;-66
2022/05/11 11:13:42;;;;;;;6.97;2.65;;;;;;;20.95;50.15;100905.34;5273389;28;20074;-66
2022/05/11 11:16:14;;;;;;;8.60;2.65;;;;;;;20.99;48.71;100887.66;5264422;28;20199;-67
2022/05/11 11:18:49;;;;;;;6.72;2.15;;;;;;;21.05;48.85;100899.63;5263538;28;20028;-67
2022/05/11 11:21:22;;;;;;;7.97;2.60;;;;;;;21.04;48.52;100898.81;5266751;28;20089;-66
2022/05/11 11:24:12;;;;;;;6.33;2.40;;;;;;;20.90;50.26;100896.91;5264120;28;20028;-66
2022/05/11 11:27:06;;;;;;;5.18;2.28;;;;;;;20.96;49.42;100893.47;5268614;28;20299;-66
2022/05/11 11:30:12;;;;;;;7.05;2.20;;;;;;;21.04;50.16;100895.25;5268605;28;20055;-66
2022/05/11 11:33:11;;;;;;;5.65;2.38;;;;;;;20.92;47.54;100895.72;5264816;28;20040;-67
2022/05/11 11:35:53;;;;;;;6.10;2.40;;;;;;;20.95;46.67;100881.75;5263356;28;20027;-67
2022/05/11 11:38:30;;;;;;;6.18;2.00;;;;;;;20.95;47.37;100881.75;5260815;28;20496;-67
2022/05/11 11:41:23;;;;;;;7.43;2.30;;;;;;;21.07;47.67;100881.31;5269128;28;20161;-66
2022/05/11 11:44:00;;;;;;;4.80;2.10;;;;;;;21.14;50.27;100876.84;5265732;28;20119;-67
2022/05/11 11:46:41;;;;;;;5.93;2.20;;;;;;;21.23;48.36;100874.84;5265357;28;21622;-68
2022/05/11 11:49:18;;;;;;;7.82;2.10;;;;;;;21.25;46.76;100868.22;5264194;28;20033;-67
2022/05/11 11:51:50;;;;;;;5.95;1.90;;;;;;;21.27;47.93;100878.91;5262873;28;20036;-67
2022/05/11 11:54:38;;;;;;;8.50;2.38;;;;;;;21.37;48.03;100865.06;5260242;28;20543;-66
2022/05/11 11:57:12;;;;;;;5.30;2.05;;;;;;;21.59;46.87;100863.25;5261471;28;20112;-67
2022/05/11 11:59:49;;;;;;;9.38;2.40;;;;;;;21.65;46.59;100868.78;5268816;28;20040;-66
2022/05/11 12:02:38;;;;;;;6.95;2.50;;;;;;;21.61;45.75;100853.91;5259705;28;20035;-66
2022/05/11 12:05:27;;;;;;;5.60;2.22;;;;;;;21.73;47.51;100855.09;5258373;28;20055;-67
2022/05/11 12:17:00;;;;;;;7.75;1.95;;;;;;;22.06;44.88;100846.47;5254902;28;19924;-67
2022/05/11 12:19:35;;;;;;;6.65;1.90;;;;;;;21.91;43.91;100851.13;5264095;28;20056;-70
2022/05/11 12:22:22;;;;;;;5.40;1.63;;;;;;;22.06;45.29;100849.19;5265750;28;20116;-68
2022/05/11 12:25:33;;;;;;;6.15;2.35;;;;;;;22.08;45.44;100847.13;5268561;28;20808;-69
2022/05/11 12:28:33;;;;;;;5.82;1.65;;;;;;;22.26;45.39;100837.72;5266248;28;20028;-68
2022/05/11 12:31:06;;;;;;;5.97;1.90;;;;;;;22.26;43.80;100829.56;5258436;28;20574;-68
2022/05/11 12:33:42;;;;;;;9.50;2.00;;;;;;;22.41;43.77;100827.59;5261798;28;20035;-69
2022/05/11 12:36:14;;;;;;;6.85;2.00;;;;;;;22.36;45.15;100826.50;5258406;28;20064;-67
2022/05/11 12:38:51;;;;;;;6.90;2.00;;;;;;;22.31;44.08;100827.09;5261624;28;20758;-69
2022/05/11 12:41:22;;;;;;;8.02;2.55;;;;;;;22.54;43.94;100832.31;5262864;28;20040;-68
2022/05/11 12:43:59;;;;;;;8.15;1.90;;;;;;;22.55;45.67;100830.44;5267614;28;20032;-67
2022/05/11 12:46:36;;;;;;;6.65;1.88;;;;;;;22.78;44.07;100828.34;5258943;28;20115;-68
2022/05/11 12:49:13;;;;;;;6.60;2.33;;;;;;;22.71;44.03;100830.16;5260064;28;20024;-66
2022/05/11 12:51:54;;;;;;;8.40;2.20;;;;;;;22.76;44.97;100824.94;5266805;28;20112;-68